Time;durP1;ratioP1;P1;durP2;ratioP2;P2;SDS_P1;SDS_P2;PMS_P1;PMS_P2;Temp;Humidity;BMP_temperature;BMP_pressure;BME280_temperature;BME280_humidity;BME280_pressure;Samples;Min_cycle;Max_cycle;Signal;HPM_P1;HPM_P2
2021/08/21 00:00:44;;;;;;;5.90;1.45;;;25.00;99.90;;;;;;5051823;28;20028;-75
2021/08/21 00:03:10;;;;;;;2.58;2.35;;;25.10;99.90;;;;;;5051600;28;20167;-76
2021/08/21 00:05:36;;;;;;;1.67;1.58;;;25.10;99.90;;;;;;5051043;28;20039;-76
2021/08/21 00:08:02;;;;;;;2.65;2.45;;;25.00;99.90;;;;;;5051907;28;20033;-76
2021/08/21 00:10:30;;;;;;;0.70;0.70;;;25.00;99.90;;;;;;5052187;28;20075;-75
2021/08/21 00:12:56;;;;;;;2.95;1.67;;;25.10;99.90;;;;;;5051936;28;20051;-75
2021/08/21 00:15:22;;;;;;;1.13;1.02;;;25.10;99.20;;;;;;5051900;28;20070;-78
2021/08/21 00:17:48;;;;;;;0.93;0.93;;;25.00;99.00;;;;;;5034173;28;20036;-78
2021/08/21 00:20:14;;;;;;;0.70;0.70;;;24.90;97.80;;;;;;5034150;28;20111;-76
2021/08/21 00:22:39;;;;;;;1.40;0.95;;;24.80;96.20;;;;;;5051550;28;20044;-76
2021/08/21 00:25:07;;;;;;;0.82;0.82;;;25.00;96.10;;;;;;5051983;28;20021;-78
2021/08/21 00:27:33;;;;;;;1.75;1.25;;;25.00;95.20;;;;;;5051870;28;20480;-76
2021/08/21 00:29:59;;;;;;;0.93;0.93;;;25.00;94.80;;;;;;5051836;28;20488;-78
2021/08/21 00:32:24;;;;;;;2.35;2.17;;;25.00;94.80;;;;;;5051495;28;20116;-75
2021/08/21 00:34:50;;;;;;;0.60;0.60;;;24.90;94.40;;;;;;5033862;28;20020;-76
2021/08/21 00:37:16;;;;;;;0.82;0.82;;;24.80;94.20;;;;;;5033642;28;20170;-77
2021/08/21 00:39:42;;;;;;;1.50;1.08;;;24.60;94.10;;;;;;5051499;28;20032;-79
2021/08/21 00:42:08;;;;;;;0.80;0.80;;;24.60;94.00;;;;;;5051438;28;20029;-77
2021/08/21 00:44:35;;;;;;;0.80;0.80;;;24.70;94.00;;;;;;5051783;28;20025;-77
2021/08/21 00:47:13;;;;;;;0.80;0.80;;;24.80;94.00;;;;;;5033251;28;20495;-75
2021/08/21 00:49:47;;;;;;;0.73;0.73;;;24.90;94.30;;;;;;5051398;28;20056;-77
2021/08/21 00:52:20;;;;;;;0.70;0.70;;;24.90;93.60;;;;;;5051248;28;20330;-77
2021/08/21 00:54:46;;;;;;;0.70;0.70;;;24.70;93.90;;;;;;5051438;28;20025;-77
2021/08/21 00:57:14;;;;;;;0.70;0.70;;;24.80;94.00;;;;;;5051492;28;20021;-76
2021/08/21 00:59:40;;;;;;;0.88;0.88;;;24.70;94.30;;;;;;5051054;28;20389;-78
2021/08/21 01:02:07;;;;;;;0.70;0.70;;;24.70;94.50;;;;;;5051100;28;20049;-76
2021/08/21 01:04:35;;;;;;;1.30;1.20;;;24.70;95.60;;;;;;5051326;28;20048;-75
2021/08/21 01:07:05;;;;;;;1.00;1.00;;;24.70;96.00;;;;;;5050661;28;20140;-75
2021/08/21 01:09:31;;;;;;;;;;;24.60;97.20;;;;;;5054102;28;20024;-74
2021/08/21 01:11:57;;;;;;;0.70;0.70;;;24.60;97.90;;;;;;5070848;28;20406;-76
2021/08/21 01:14:26;;;;;;;0.93;0.93;;;24.50;99.60;;;;;;5070685;28;20064;-75
2021/08/21 01:16:53;;;;;;;0.82;0.82;;;24.50;99.80;;;;;;5070899;28;20423;-76
2021/08/21 01:19:21;;;;;;;1.00;1.00;;;24.50;99.90;;;;;;5070842;28;20020;-75
2021/08/21 01:21:47;;;;;;;1.45;1.35;;;24.40;99.90;;;;;;5070419;28;20032;-76
2021/08/21 01:24:13;;;;;;;0.80;0.80;;;24.40;99.90;;;;;;5070750;28;20055;-75
2021/08/21 01:26:55;;;;;;;0.70;0.70;;;24.30;99.90;;;;;;5070619;28;20060;-77
2021/08/21 01:29:22;;;;;;;0.80;0.80;;;24.30;99.90;;;;;;5052632;28;20060;-78
2021/08/21 01:31:48;;;;;;;3.65;2.25;;;24.40;99.90;;;;;;5070731;28;20400;-77
2021/08/21 01:34:14;;;;;;;0.93;0.93;;;24.20;99.90;;;;;;5070311;28;20032;-78
2021/08/21 01:36:42;;;;;;;0.77;0.77;;;24.30;99.90;;;;;;5070333;28;20025;-75
2021/08/21 01:39:08;;;;;;;0.80;0.80;;;24.30;99.90;;;;;;5070639;28;20477;-77
2021/08/21 01:41:34;;;;;;;1.02;1.02;;;24.30;99.90;;;;;;5070326;28;20025;-76
2021/08/21 01:44:00;;;;;;;0.82;0.82;;;24.30;99.90;;;;;;5070577;28;20070;-78
2021/08/21 01:46:25;;;;;;;0.82;0.82;;;24.20;99.90;;;;;;5070072;28;20115;-78
2021/08/21 01:48:51;;;;;;;0.70;0.70;;;24.30;99.90;;;;;;5070499;28;20062;-77
2021/08/21 01:51:17;;;;;;;0.82;0.82;;;24.30;99.90;;;;;;5069765;28;20111;-76
2021/08/21 01:53:43;;;;;;;0.80;0.80;;;24.40;99.90;;;;;;5070411;28;20033;-75
2021/08/21 01:56:09;;;;;;;1.05;1.00;;;24.40;99.90;;;;;;5052400;28;20047;-77
2021/08/21 01:58:36;;;;;;;0.70;0.70;;;24.40;99.90;;;;;;5069978;28;20095;-79
2021/08/21 02:01:04;;;;;;;1.38;1.08;;;24.50;99.90;;;;;;5070389;28;20024;-78
2021/08/21 02:03:32;;;;;;;0.80;0.80;;;24.40;99.90;;;;;;5051829;28;20055;-79
2021/08/21 02:05:57;;;;;;;1.10;1.00;;;24.50;99.90;;;;;;5069997;28;20021;-78
2021/08/21 02:08:23;;;;;;;1.67;1.58;;;24.40;99.90;;;;;;5070027;28;20369;-77
2021/08/21 02:10:49;;;;;;;2.45;2.25;;;24.30;99.90;;;;;;5052821;28;20108;-75
2021/08/21 02:13:15;;;;;;;0.88;0.88;;;24.30;99.90;;;;;;5049561;28;20072;-75
2021/08/21 02:15:41;;;;;;;0.93;0.93;;;24.40;99.90;;;;;;5048757;28;20389;-76
2021/08/21 02:18:06;;;;;;;0.90;0.90;;;24.40;99.90;;;;;;5050299;28;20435;-76
2021/08/21 02:20:32;;;;;;;1.35;1.25;;;24.20;99.90;;;;;;5049654;28;20021;-79
2021/08/21 02:22:58;;;;;;;0.95;0.95;;;24.10;99.90;;;;;;5049554;28;20061;-78
2021/08/21 02:25:24;;;;;;;0.85;0.85;;;24.20;99.90;;;;;;5050081;28;20037;-79
2021/08/21 02:27:59;;;;;;;0.70;0.70;;;24.30;99.90;;;;;;5049668;28;20033;-77
2021/08/21 02:30:25;;;;;;;0.98;0.98;;;24.30;99.90;;;;;;5053572;28;20023;-75
2021/08/21 02:32:51;;;;;;;0.70;0.70;;;24.40;99.90;;;;;;5054151;28;20048;-77
2021/08/21 02:35:17;;;;;;;1.33;1.23;;;24.40;99.90;;;;;;5053983;28;20116;-76
2021/08/21 02:37:43;;;;;;;1.30;1.20;;;24.40;99.90;;;;;;5035741;28;20109;-76
2021/08/21 02:40:09;;;;;;;2.17;1.02;;;24.40;99.90;;;;;;5053985;28;20028;-78
2021/08/21 02:42:35;;;;;;;1.20;1.10;;;24.30;99.90;;;;;;5053783;28;20033;-76
2021/08/21 02:45:00;;;;;;;1.00;1.00;;;24.00;99.90;;;;;;5053676;28;20082;-77
2021/08/21 02:47:26;;;;;;;0.70;0.70;;;24.00;99.90;;;;;;5053377;28;20044;-77
2021/08/21 02:49:52;;;;;;;0.98;0.98;;;24.10;99.90;;;;;;5053860;28;20021;-75
2021/08/21 02:52:17;;;;;;;1.00;0.90;;;24.00;99.90;;;;;;5053216;28;20107;-77
2021/08/21 02:54:43;;;;;;;0.80;0.80;;;24.00;99.90;;;;;;5053478;28;20461;-75
2021/08/21 02:57:09;;;;;;;1.35;1.23;;;24.00;99.90;;;;;;5053520;28;20036;-76
2021/08/21 02:59:35;;;;;;;0.82;0.82;;;24.10;99.90;;;;;;5053318;28;20033;-77
2021/08/21 03:02:00;;;;;;;0.88;0.88;;;24.10;99.90;;;;;;5053052;28;20052;-76
2021/08/21 03:04:26;;;;;;;2.17;1.98;;;24.20;99.90;;;;;;5053330;28;20036;-76
2021/08/21 03:06:52;;;;;;;1.45;1.35;;;24.20;99.90;;;;;;5053196;28;20124;-77
2021/08/21 03:09:17;;;;;;;0.70;0.70;;;24.10;99.90;;;;;;5054320;28;20024;-75
2021/08/21 03:11:43;;;;;;;1.40;1.13;;;24.10;99.90;;;;;;5073090;28;20074;-76
2021/08/21 03:14:09;;;;;;;2.05;1.02;;;24.10;99.90;;;;;;5073162;28;20514;-77
2021/08/21 03:16:34;;;;;;;1.00;1.00;;;24.10;99.90;;;;;;5072933;28;20119;-77
2021/08/21 03:19:00;;;;;;;0.80;0.80;;;24.00;99.90;;;;;;5072910;28;20032;-77
2021/08/21 03:21:26;;;;;;;1.27;1.17;;;24.00;99.90;;;;;;5072875;28;20021;-76
2021/08/21 03:23:52;;;;;;;0.80;0.80;;;24.10;99.90;;;;;;5072605;28;20032;-76
2021/08/21 03:26:17;;;;;;;0.80;0.80;;;24.10;99.90;;;;;;5072976;28;20028;-76
2021/08/21 03:28:43;;;;;;;1.45;1.35;;;24.10;99.90;;;;;;5072929;28;20492;-76
2021/08/21 03:31:09;;;;;;;1.23;1.13;;;24.10;99.90;;;;;;5072506;28;20111;-77
2021/08/21 03:33:34;;;;;;;0.88;0.85;;;24.00;99.90;;;;;;5072871;28;20504;-77
2021/08/21 03:36:00;;;;;;;6.18;1.48;;;23.90;99.90;;;;;;5073043;28;20485;-77
2021/08/21 03:38:26;;;;;;;0.70;0.70;;;23.60;99.90;;;;;;5073151;28;20111;-76
2021/08/21 03:40:51;;;;;;;1.10;1.10;;;23.30;99.90;;;;;;5071541;28;20025;-75
2021/08/21 03:43:17;;;;;;;1.15;1.10;;;23.60;99.90;;;;;;5072851;28;20814;-76
2021/08/21 03:45:44;;;;;;;0.82;0.82;;;23.80;99.90;;;;;;5072786;28;20020;-77
2021/08/21 03:48:11;;;;;;;1.95;1.20;;;23.90;99.90;;;;;;5072737;28;20040;-76
2021/08/21 03:50:37;;;;;;;1.52;1.42;;;23.70;99.90;;;;;;5054542;28;20028;-78
2021/08/21 03:53:03;;;;;;;0.70;0.70;;;23.10;99.60;;;;;;5072785;28;20041;-77
2021/08/21 03:55:29;;;;;;;1.02;0.95;;;23.30;98.90;;;;;;5072452;28;20036;-77
2021/08/21 03:57:55;;;;;;;1.20;1.13;;;23.30;97.90;;;;;;5054334;28;20024;-76
2021/08/21 04:00:20;;;;;;;0.90;0.90;;;23.40;95.90;;;;;;5072773;28;20099;-76
2021/08/21 04:02:46;;;;;;;0.80;0.80;;;23.60;95.00;;;;;;5071541;28;20110;-78
2021/08/21 04:05:12;;;;;;;1.13;1.02;;;23.60;94.60;;;;;;5072385;28;20488;-77
2021/08/21 04:07:37;;;;;;;0.80;0.80;;;23.20;93.50;;;;;;5071993;28;20043;-77
2021/08/21 04:10:04;;;;;;;1.35;1.25;;;23.00;94.00;;;;;;5064499;28;20028;-77
2021/08/21 04:12:30;;;;;;;0.73;0.73;;;23.10;94.50;;;;;;5051641;28;20501;-77
2021/08/21 04:14:55;;;;;;;0.80;0.80;;;23.50;93.80;;;;;;5052253;28;20060;-78
2021/08/21 04:17:23;;;;;;;1.85;1.73;;;23.80;93.60;;;;;;5052220;28;20504;-76
2021/08/21 04:19:49;;;;;;;0.70;0.70;;;23.80;94.10;;;;;;5051876;28;20032;-77
2021/08/21 04:22:16;;;;;;;1.55;1.30;;;23.40;94.90;;;;;;5051818;28;20044;-77
2021/08/21 04:24:41;;;;;;;0.85;0.85;;;23.30;96.10;;;;;;5052171;28;20021;-77
2021/08/21 04:27:07;;;;;;;1.48;1.33;;;23.60;96.20;;;;;;5051475;28;20036;-76
2021/08/21 04:29:33;;;;;;;9.52;1.73;;;23.20;96.40;;;;;;5051784;28;20028;-76
2021/08/21 04:31:59;;;;;;;0.95;0.95;;;23.10;96.70;;;;;;5051547;28;20057;-76
2021/08/21 04:34:24;;;;;;;0.88;0.88;;;23.40;96.30;;;;;;5051687;28;20029;-77
2021/08/21 04:36:50;;;;;;;0.90;0.90;;;23.40;95.50;;;;;;5051569;28;20428;-76
2021/08/21 04:39:16;;;;;;;1.27;1.17;;;23.40;95.00;;;;;;5051662;28;20029;-76
2021/08/21 04:41:41;;;;;;;1.73;1.63;;;23.40;95.30;;;;;;5033387;28;20464;-76
2021/08/21 04:44:07;;;;;;;1.45;1.35;;;23.40;95.40;;;;;;5051470;28;20036;-76
2021/08/21 04:46:34;;;;;;;1.35;1.25;;;23.50;95.90;;;;;;5051358;28;20029;-76
2021/08/21 04:49:01;;;;;;;1.20;1.10;;;23.50;96.00;;;;;;5051055;28;20040;-77
2021/08/21 04:51:26;;;;;;;0.80;0.80;;;23.70;95.80;;;;;;5050899;28;20021;-77
2021/08/21 04:53:52;;;;;;;1.23;1.13;;;23.50;95.30;;;;;;5033504;28;20028;-76
2021/08/21 04:56:18;;;;;;;0.80;0.80;;;23.50;94.10;;;;;;5051463;28;20056;-76
2021/08/21 04:58:44;;;;;;;0.80;0.80;;;23.80;93.30;;;;;;5050599;28;20052;-77
2021/08/21 05:01:09;;;;;;;1.73;1.63;;;23.70;91.60;;;;;;5033022;28;20028;-77
2021/08/21 05:03:35;;;;;;;1.30;1.20;;;23.60;90.80;;;;;;5050577;28;20509;-77
2021/08/21 05:06:01;;;;;;;1.17;1.10;;;23.70;90.90;;;;;;5050622;28;20374;-76
2021/08/21 05:08:26;;;;;;;0.90;0.90;;;23.70;90.50;;;;;;5050421;28;20400;-76
2021/08/21 05:10:52;;;;;;;4.13;1.10;;;23.80;90.20;;;;;;5042442;28;20583;-76
2021/08/21 05:13:18;;;;;;;1.00;1.00;;;23.90;90.00;;;;;;5049263;28;20024;-77
2021/08/21 05:15:46;;;;;;;0.80;0.80;;;24.10;89.50;;;;;;5050843;28;20473;-78
2021/08/21 05:18:13;;;;;;;1.08;1.08;;;24.10;89.50;;;;;;5051196;28;20159;-76
2021/08/21 05:20:51;;;;;;;0.80;0.80;;;24.10;89.20;;;;;;5050624;28;20112;-76
2021/08/21 05:23:17;;;;;;;1.00;1.00;;;23.50;92.70;;;;;;5050718;28;20036;-77
2021/08/21 05:25:47;;;;;;;0.93;0.93;;;23.60;92.70;;;;;;5051053;28;20022;-78
2021/08/21 05:28:14;;;;;;;;;;;23.80;92.80;;;;;;5050390;28;20068;-76
2021/08/21 05:30:41;;;;;;;0.70;0.70;;;24.00;93.00;;;;;;5049455;28;20347;-78
2021/08/21 05:33:14;;;;;;;1.80;1.65;;;23.90;92.70;;;;;;5049235;28;20071;-76
2021/08/21 05:35:41;;;;;;;1.27;1.17;;;23.60;93.90;;;;;;5050882;28;20578;-78
2021/08/21 05:38:07;;;;;;;1.50;1.40;;;23.90;94.10;;;;;;5050334;28;20043;-78
2021/08/21 05:40:34;;;;;;;3.22;2.42;;;23.60;94.20;;;;;;5050661;28;20127;-77
2021/08/21 05:43:00;;;;;;;1.05;1.05;;;23.40;94.70;;;;;;5050103;28;20048;-77
2021/08/21 05:45:27;;;;;;;2.53;1.83;;;23.10;94.30;;;;;;5049110;28;20403;-77
2021/08/21 05:47:53;;;;;;;1.00;1.00;;;23.00;94.80;;;;;;5050164;28;20035;-78
2021/08/21 05:50:21;;;;;;;0.95;0.95;;;22.90;94.70;;;;;;5050350;28;20084;-77
2021/08/21 05:52:47;;;;;;;1.40;1.33;;;22.80;95.00;;;;;;5050254;28;20025;-77
2021/08/21 05:55:13;;;;;;;4.25;1.63;;;22.80;94.70;;;;;;5050431;28;20021;-77
2021/08/21 05:57:39;;;;;;;1.92;1.75;;;22.80;94.70;;;;;;5049726;28;20115;-76
2021/08/21 06:00:06;;;;;;;1.85;1.75;;;22.80;94.60;;;;;;5049394;28;20107;-76
2021/08/21 06:02:32;;;;;;;1.13;1.13;;;22.50;95.10;;;;;;5049615;28;20079;-77
2021/08/21 06:04:58;;;;;;;1.02;1.02;;;22.50;97.40;;;;;;5049749;28;20037;-77
2021/08/21 06:07:23;;;;;;;1.60;1.50;;;22.40;99.40;;;;;;5049767;28;20077;-76
2021/08/21 06:09:49;;;;;;;1.52;1.42;;;22.60;98.80;;;;;;5050055;28;20447;-78
2021/08/21 06:12:15;;;;;;;0.90;0.90;;;22.40;99.90;;;;;;5049508;28;20040;-78
2021/08/21 06:14:41;;;;;;;0.90;0.90;;;22.50;99.90;;;;;;5032618;28;20036;-76
2021/08/21 06:17:08;;;;;;;1.00;0.98;;;22.80;99.70;;;;;;5032060;28;20531;-75
2021/08/21 06:19:35;;;;;;;0.93;0.93;;;23.20;99.90;;;;;;5049485;28;20060;-78
2021/08/21 06:22:01;;;;;;;1.48;1.38;;;23.20;99.90;;;;;;5050170;28;20388;-79
2021/08/21 06:24:26;;;;;;;1.70;1.60;;;23.30;99.90;;;;;;5049681;28;20495;-76
2021/08/21 06:26:52;;;;;;;1.60;1.50;;;23.00;99.90;;;;;;5049566;28;20676;-77
2021/08/21 06:29:18;;;;;;;1.77;1.67;;;22.90;99.90;;;;;;5049782;28;20028;-77
2021/08/21 06:31:43;;;;;;;0.90;0.90;;;22.70;99.90;;;;;;5049711;28;20432;-76
2021/08/21 06:34:09;;;;;;;1.13;1.10;;;21.80;99.90;;;;;;5049143;28;20052;-77
2021/08/21 06:36:35;;;;;;;1.00;1.00;;;21.70;99.90;;;;;;5049228;28;20033;-77
2021/08/21 06:39:01;;;;;;;1.00;1.00;;;21.80;99.90;;;;;;5049104;28;20468;-77
2021/08/21 06:41:26;;;;;;;1.55;1.45;;;22.20;99.90;;;;;;5048958;28;20079;-78
2021/08/21 06:43:52;;;;;;;1.55;1.45;;;22.70;99.90;;;;;;5048788;28;20419;-80
2021/08/21 06:46:18;;;;;;;2.30;1.80;;;22.70;99.90;;;;;;5048938;28;20022;-78
2021/08/21 06:48:43;;;;;;;1.20;1.13;;;22.10;99.90;;;;;;5048975;28;20099;-78
2021/08/21 06:51:09;;;;;;;1.88;1.55;;;21.50;99.90;;;;;;5031174;28;20032;-76
2021/08/21 06:53:35;;;;;;;1.10;1.10;;;21.00;99.90;;;;;;5020130;28;20496;-77
2021/08/21 06:56:02;;;;;;;1.30;1.20;;;20.80;99.90;;;;;;5049124;28;20024;-76
2021/08/21 06:58:28;;;;;;;1.23;1.13;;;20.80;99.90;;;;;;5048952;28;20029;-77
2021/08/21 07:00:55;;;;;;;1.38;1.27;;;20.90;99.90;;;;;;5049076;28;20100;-78
2021/08/21 07:03:21;;;;;;;1.02;1.02;;;21.20;99.90;;;;;;5046786;28;20033;-77
2021/08/21 07:05:47;;;;;;;1.40;1.30;;;21.70;99.90;;;;;;5048488;28;20037;-75
2021/08/21 07:08:13;;;;;;;1.30;1.20;;;21.10;99.90;;;;;;5025801;28;20040;-77
2021/08/21 07:10:39;;;;;;;1.30;1.20;;;21.10;99.90;;;;;;5049169;28;20025;-78
2021/08/21 07:13:05;;;;;;;1.23;1.13;;;20.60;99.90;;;;;;5049273;28;20462;-76
2021/08/21 07:15:31;;;;;;;1.50;1.40;;;20.70;99.90;;;;;;5051008;28;20033;-76
2021/08/21 07:17:57;;;;;;;1.10;1.10;;;20.80;99.90;;;;;;5053350;28;20152;-76
2021/08/21 07:20:23;;;;;;;1.20;1.10;;;21.70;99.90;;;;;;5053580;28;20029;-77
2021/08/21 07:22:49;;;;;;;1.23;1.13;;;22.00;99.90;;;;;;5053315;28;20056;-79
2021/08/21 07:25:15;;;;;;;1.00;1.00;;;21.90;99.90;;;;;;5041547;28;20060;-75
2021/08/21 07:27:41;;;;;;;1.30;1.20;;;21.70;99.90;;;;;;5045053;28;20036;-77
2021/08/21 07:30:07;;;;;;;1.20;1.10;;;21.80;99.90;;;;;;5051271;28;20033;-74
2021/08/21 07:32:34;;;;;;;1.13;1.08;;;21.60;99.90;;;;;;5052148;28;20063;-76
2021/08/21 07:35:00;;;;;;;1.30;1.20;;;21.70;99.90;;;;;;5052055;28;20029;-77
2021/08/21 07:37:26;;;;;;;2.45;1.38;;;21.80;99.90;;;;;;5050539;28;20413;-76
2021/08/21 07:39:52;;;;;;;1.52;1.42;;;21.70;99.90;;;;;;5047672;28;20492;-77
2021/08/21 07:42:18;;;;;;;6.72;2.13;;;21.80;99.90;;;;;;5034618;28;20468;-76
2021/08/21 07:44:47;;;;;;;1.00;1.00;;;21.90;99.90;;;;;;5052678;28;20028;-76
2021/08/21 07:47:13;;;;;;;1.40;1.30;;;21.10;99.90;;;;;;5051500;28;20517;-76
2021/08/21 07:49:38;;;;;;;1.33;1.23;;;20.40;99.90;;;;;;5051325;28;20044;-77
2021/08/21 07:52:05;;;;;;;1.30;1.20;;;19.80;99.90;;;;;;5049797;28;20025;-75
2021/08/21 07:54:30;;;;;;;1.90;1.80;;;19.80;99.90;;;;;;5051651;28;20362;-75
2021/08/21 07:56:56;;;;;;;1.30;1.20;;;20.10;99.90;;;;;;5050888;28;20496;-75
2021/08/21 07:59:22;;;;;;;1.98;1.85;;;19.40;99.90;;;;;;5052437;28;20103;-77
2021/08/21 08:01:47;;;;;;;2.55;1.65;;;19.30;99.90;;;;;;5050619;28;20756;-77
2021/08/21 08:04:13;;;;;;;1.77;1.63;;;19.30;99.90;;;;;;5050871;28;20037;-76
2021/08/21 08:06:40;;;;;;;1.38;1.27;;;19.20;99.90;;;;;;5051617;28;20021;-77
2021/08/21 08:09:06;;;;;;;1.35;1.25;;;19.20;99.90;;;;;;5051596;28;20174;-77
2021/08/21 08:11:31;;;;;;;1.30;1.20;;;19.00;99.90;;;;;;5064664;28;20474;-74
2021/08/21 08:13:57;;;;;;;1.48;1.38;;;18.90;99.90;;;;;;5046713;28;20033;-75
2021/08/21 08:16:23;;;;;;;1.25;1.15;;;19.20;99.90;;;;;;5050624;28;20028;-75
2021/08/21 08:18:49;;;;;;;1.50;1.40;;;19.20;99.90;;;;;;5051898;28;20036;-74
2021/08/21 08:21:18;;;;;;;1.33;1.23;;;19.00;99.90;;;;;;5028963;28;20049;-75
2021/08/21 08:23:44;;;;;;;1.30;1.20;;;18.80;99.90;;;;;;5051469;28;20024;-74
2021/08/21 08:26:10;;;;;;;1.45;1.35;;;19.00;99.90;;;;;;5028960;28;20029;-77
2021/08/21 08:28:36;;;;;;;3.40;1.88;;;19.60;99.90;;;;;;5030799;28;20039;-78
2021/08/21 08:31:01;;;;;;;1.63;1.50;;;19.40;99.90;;;;;;5031792;28;20569;-77
2021/08/21 08:33:27;;;;;;;1.40;1.30;;;19.20;99.90;;;;;;5048769;28;20025;-83
2021/08/21 08:35:55;;;;;;;1.70;1.60;;;19.30;99.90;;;;;;5031600;28;20147;-80
2021/08/21 08:38:21;;;;;;;2.30;2.10;;;19.90;99.90;;;;;;5048748;28;20029;-80
2021/08/21 08:40:49;;;;;;;1.58;1.48;;;20.10;99.90;;;;;;5030755;28;20388;-81
2021/08/21 08:43:17;;;;;;;4.18;2.85;;;19.50;99.90;;;;;;5050002;28;20392;-81
2021/08/21 08:45:44;;;;;;;1.30;1.20;;;19.40;99.90;;;;;;5050608;28;20017;-79
2021/08/21 08:48:12;;;;;;;1.90;1.75;;;19.70;99.90;;;;;;5032836;28;20040;-79
2021/08/21 08:50:39;;;;;;;10.52;5.50;;;19.80;99.90;;;;;;5048571;28;20079;-80
2021/08/21 08:53:05;;;;;;;3.55;2.92;;;20.20;99.90;;;;;;5050392;28;20385;-80
2021/08/21 08:55:32;;;;;;;3.05;2.75;;;20.40;99.90;;;;;;5032218;28;20478;-79
2021/08/21 08:57:58;;;;;;;1.23;1.13;;;20.20;99.90;;;;;;5050900;28;20028;-77
2021/08/21 09:00:26;;;;;;;1.10;1.10;;;20.70;99.90;;;;;;5050454;28;20043;-76
2021/08/21 09:02:54;;;;;;;2.30;2.10;;;20.80;99.90;;;;;;5048027;28;20501;-78
2021/08/21 09:05:23;;;;;;;1.23;1.13;;;21.10;99.90;;;;;;5049102;28;20035;-77
2021/08/21 09:07:53;;;;;;;1.17;1.15;;;21.40;99.90;;;;;;5050586;28;20037;-81
2021/08/21 09:10:23;;;;;;;1.00;1.00;;;21.50;99.90;;;;;;5032064;28;20063;-78
2021/08/21 09:13:12;;;;;;;1.05;1.05;;;21.40;99.90;;;;;;5049933;28;20573;-78
2021/08/21 09:15:43;;;;;;;1.25;1.15;;;21.60;99.90;;;;;;5049822;28;20075;-77
2021/08/21 09:18:25;;;;;;;1.08;1.08;;;21.90;99.90;;;;;;5051222;28;20037;-79
2021/08/21 09:21:03;;;;;;;1.00;1.00;;;21.90;99.90;;;;;;5032248;28;20033;-78
2021/08/21 09:23:37;;;;;;;2.22;2.03;;;21.80;99.90;;;;;;5049292;28;20036;-79
2021/08/21 09:26:09;;;;;;;1.20;1.10;;;21.80;99.90;;;;;;5046842;28;20024;-76
2021/08/21 09:28:40;;;;;;;1.20;1.10;;;21.90;99.90;;;;;;5050893;28;20060;-77
2021/08/21 09:31:07;;;;;;;0.90;0.90;;;20.80;99.90;;;;;;5049638;28;20649;-77
2021/08/21 09:33:35;;;;;;;1.48;1.38;;;20.30;99.90;;;;;;5032161;28;20029;-77
2021/08/21 09:36:01;;;;;;;1.35;1.25;;;20.00;99.90;;;;;;5049235;28;20029;-77
2021/08/21 09:38:29;;;;;;;1.88;1.77;;;19.90;99.90;;;;;;5048290;28;20436;-78
2021/08/21 09:41:04;;;;;;;7.07;2.78;;;20.10;99.90;;;;;;5049524;28;20024;-78
2021/08/21 09:43:33;;;;;;;1.75;1.65;;;20.20;99.90;;;;;;5049393;28;20021;-77
2021/08/21 09:46:20;;;;;;;1.38;1.27;;;20.20;99.90;;;;;;5031405;28;20021;-76
2021/08/21 09:49:06;;;;;;;1.20;1.10;;;20.00;99.90;;;;;;5047574;28;20037;-78
2021/08/21 09:51:39;;;;;;;1.33;1.23;;;20.30;99.90;;;;;;5031258;28;20032;-80
2021/08/21 09:54:10;;;;;;;1.30;1.20;;;20.50;99.90;;;;;;5031885;28;20017;-79
2021/08/21 09:56:42;;;;;;;1.52;1.42;;;20.60;99.90;;;;;;5048439;28;20029;-83
2021/08/21 09:59:08;;;;;;;2.08;1.85;;;21.10;99.90;;;;;;5032648;28;20036;-83
2021/08/21 10:01:35;;;;;;;1.40;1.30;;;21.00;99.90;;;;;;5047728;28;20099;-79
2021/08/21 10:04:02;;;;;;;1.15;1.13;;;20.90;99.90;;;;;;5030108;28;20110;-79
2021/08/21 10:06:27;;;;;;;6.88;1.42;;;20.60;99.90;;;;;;5049508;28;20084;-78
2021/08/21 10:08:58;;;;;;;1.40;1.30;;;20.80;99.90;;;;;;5049941;28;20481;-77
2021/08/21 10:11:25;;;;;;;0.90;0.90;;;21.20;99.90;;;;;;5046029;28;20020;-78
2021/08/21 10:13:52;;;;;;;1.00;1.00;;;21.40;99.90;;;;;;5046264;28;20017;-77
2021/08/21 10:16:19;;;;;;;1.35;1.25;;;21.60;99.90;;;;;;5047490;28;20040;-77
2021/08/21 10:18:49;;;;;;;1.65;1.55;;;21.30;99.90;;;;;;5047362;28;20056;-77
2021/08/21 10:21:17;;;;;;;1.70;1.30;;;21.80;99.90;;;;;;5048636;28;20099;-77
2021/08/21 10:23:44;;;;;;;1.30;1.20;;;22.30;99.90;;;;;;5046676;28;20033;-76
2021/08/21 10:26:16;;;;;;;1.15;1.10;;;22.60;99.90;;;;;;5028997;28;20027;-76
2021/08/21 10:28:43;;;;;;;0.90;0.90;;;22.60;99.90;;;;;;5029769;28;20055;-79
2021/08/21 10:31:29;;;;;;;6.70;2.53;;;22.10;99.90;;;;;;5033242;28;20033;-78
2021/08/21 10:33:55;;;;;;;0.90;0.90;;;21.70;99.90;;;;;;5049524;28;20029;-78
2021/08/21 10:36:49;;;;;;;1.75;1.27;;;22.00;99.90;;;;;;5046751;28;20076;-75
2021/08/21 10:39:37;;;;;;;1.17;1.13;;;22.80;99.90;;;;;;5049553;28;20037;-79
2021/08/21 10:42:23;;;;;;;1.33;1.23;;;23.30;99.90;;;;;;5030669;28;20563;-76
2021/08/21 10:44:51;;;;;;;1.00;1.00;;;23.70;99.90;;;;;;5050061;28;20032;-76
2021/08/21 10:47:33;;;;;;;1.70;1.60;;;23.50;99.90;;;;;;5029940;28;20547;-80
2021/08/21 10:50:30;;;;;;;1.95;1.33;;;23.50;99.90;;;;;;5050287;28;20028;-75
2021/08/21 10:53:03;;;;;;;1.20;1.10;;;23.70;99.90;;;;;;5004791;28;20037;-75
2021/08/21 10:55:37;;;;;;;1.55;1.45;;;23.90;99.90;;;;;;5043907;28;20485;-76
2021/08/21 10:58:06;;;;;;;1.33;1.23;;;24.00;99.90;;;;;;5051947;28;20103;-76
2021/08/21 11:00:42;;;;;;;0.82;0.82;;;24.10;99.90;;;;;;5048368;28;20672;-76
2021/08/21 11:03:17;;;;;;;1.10;1.00;;;24.20;99.90;;;;;;5049029;28;20072;-77
2021/08/21 11:05:58;;;;;;;0.60;0.60;;;24.40;99.90;;;;;;5031642;28;20487;-78
2021/08/21 11:08:29;;;;;;;1.38;1.30;;;24.30;99.90;;;;;;5031750;28;20038;-76
2021/08/21 11:14:19;;;;;;;2.58;1.38;;;24.40;99.90;;;;;;5051086;28;20037;-76
2021/08/21 11:17:05;;;;;;;3.10;2.53;;;24.10;99.90;;;;;;5034677;28;20028;-77
2021/08/21 11:19:45;;;;;;;5.05;4.55;;;24.00;99.90;;;;;;5053364;28;20076;-76
2021/08/21 11:22:16;;;;;;;4.68;2.78;;;23.90;99.90;;;;;;5052071;28;20610;-79
2021/08/21 11:24:56;;;;;;;1.13;1.05;;;23.70;99.90;;;;;;5044195;28;20029;-77
2021/08/21 11:27:28;;;;;;;2.03;1.77;;;23.70;99.90;;;;;;5014665;28;20067;-78
2021/08/21 11:30:10;;;;;;;2.00;1.80;;;23.70;99.90;;;;;;5015174;28;20470;-75
2021/08/21 11:33:04;;;;;;;0.90;0.90;;;23.60;99.90;;;;;;5039936;28;20530;-75
2021/08/21 11:35:48;;;;;;;1.40;1.30;;;23.70;99.90;;;;;;5032141;28;20370;-75
2021/08/21 11:38:16;;;;;;;1.23;1.13;;;23.70;99.90;;;;;;5052425;28;20068;-77
2021/08/21 11:40:42;;;;;;;1.75;1.35;;;23.60;99.90;;;;;;5051908;28;20017;-76
2021/08/21 11:43:11;;;;;;;0.98;0.98;;;23.70;99.90;;;;;;5051460;28;20029;-76
2021/08/21 11:45:38;;;;;;;0.77;0.77;;;23.60;99.90;;;;;;5034204;28;20480;-76
2021/08/21 11:48:04;;;;;;;0.90;0.90;;;23.40;99.90;;;;;;5049767;28;20028;-76
2021/08/21 11:50:33;;;;;;;1.40;1.30;;;23.50;99.90;;;;;;5035087;28;20392;-77
2021/08/21 11:53:02;;;;;;;0.80;0.80;;;23.40;99.90;;;;;;5033234;28;20029;-76
2021/08/21 11:55:30;;;;;;;0.95;0.95;;;23.50;99.90;;;;;;5040004;28;20468;-77
2021/08/21 11:57:56;;;;;;;1.10;1.05;;;23.40;99.90;;;;;;5014291;28;20140;-77
2021/08/21 12:00:25;;;;;;;0.77;0.77;;;23.40;99.90;;;;;;5030474;28;20143;-77
2021/08/21 12:02:55;;;;;;;1.55;1.45;;;23.40;99.90;;;;;;5038032;28;20045;-76
2021/08/21 12:05:29;;;;;;;0.80;0.80;;;23.40;99.90;;;;;;5034318;28;20397;-76
2021/08/21 12:07:55;;;;;;;1.05;1.02;;;23.60;99.90;;;;;;5034360;28;20056;-77
2021/08/21 12:10:21;;;;;;;1.15;1.10;;;23.70;99.90;;;;;;5030755;28;20136;-76
2021/08/21 12:12:55;;;;;;;4.18;2.40;;;23.70;99.90;;;;;;5031542;28;20108;-76
2021/08/21 12:15:26;;;;;;;0.88;0.88;;;23.80;99.90;;;;;;5052052;28;20033;-76
2021/08/21 12:17:52;;;;;;;1.30;1.05;;;23.80;99.90;;;;;;5051649;28;20041;-77
2021/08/21 12:20:18;;;;;;;0.95;0.95;;;23.80;99.90;;;;;;5052419;28;20498;-79
2021/08/21 12:22:44;;;;;;;0.88;0.88;;;23.80;99.90;;;;;;5047687;28;20040;-80
2021/08/21 12:25:10;;;;;;;2.17;1.58;;;23.90;99.90;;;;;;5050824;28;20025;-79
2021/08/21 12:27:36;;;;;;;0.63;0.63;;;24.10;99.90;;;;;;5051645;28;20025;-77
2021/08/21 12:30:20;;;;;;;2.55;1.80;;;24.30;99.90;;;;;;5052075;28;20025;-77
2021/08/21 12:32:46;;;;;;;1.05;1.02;;;24.20;99.90;;;;;;5050267;28;20040;-80
2021/08/21 12:35:18;;;;;;;0.60;0.60;;;24.20;99.90;;;;;;5030959;28;20033;-78
2021/08/21 12:38:01;;;;;;;0.90;0.90;;;24.20;99.90;;;;;;5051194;28;20083;-79
2021/08/21 12:40:26;;;;;;;3.22;2.78;;;24.10;99.90;;;;;;5033272;28;20032;-82
2021/08/21 12:43:04;;;;;;;0.73;0.73;;;24.20;99.90;;;;;;5050069;28;20025;-79
2021/08/21 12:45:31;;;;;;;1.13;1.02;;;24.40;99.90;;;;;;5050332;28;20420;-79
2021/08/21 12:48:07;;;;;;;1.35;1.25;;;24.50;99.90;;;;;;5030799;28;20029;-81
2021/08/21 12:50:39;;;;;;;2.20;1.98;;;24.60;99.90;;;;;;5051735;28;20037;-85
2021/08/21 12:53:05;;;;;;;1.42;1.33;;;25.00;99.90;;;;;;5049992;28;20107;-81
2021/08/21 12:55:32;;;;;;;1.58;1.40;;;24.90;99.90;;;;;;5031773;28;20108;-82